• Join FlightAware (Why Join?)
  • Login
  • US Flag 
07:40PM EDT


 

Airport Tracker/Info


-or-


 

Live Flight TrackerFlight Track Log ✈ N872DC ✈ 24-May-2013 ✈ KMBS - KBTR

Flight Track Log - Related Links

Times and Time Zones

All times are in EDT time to prevent confusion due to time zone crossing. See the N872DC flight status page for this flight to view local times or setup timezone preferences in your user account.

Time Position Orientation Groundspeed Altitude Reporting Facility
EDT Latitude Longitude Course Direction KTS MPH feet Rate Location/Type
02:51PM 43.3572 -84.1639 211° Southwest 320 368 9,900  Level Cleveland Center
02:52PM 43.2867 -84.2197 210° Southwest 340 391 10,100 1,620 Climbing Cleveland Center
02:53PM 43.1858 -84.3078 212° Southwest 389 448 13,200 2,880 Climbing Cleveland Center
02:54PM 43.0176 -84.4183 206° Southwest  Level Estimated
02:54PM 43.0969 -84.4133 221° Southwest 397 457 15,900  Level Cleveland Center
02:55PM 42.9144 -84.4854 210° Southwest  Level Estimated
02:55PM 43.0200 -84.5278 227° Southwest 397 457 18,000  Level Cleveland Center
02:56PM 42.8223 -84.5777 216° Southwest  Level FlightAware Approximate
02:56PM 42.9311 -84.6328 221° Southwest 414 476 20,400  Level Cleveland Center
02:57PM 42.8067 -84.6703 192° South 430 495 21,000 480 Climbing Cleveland Center
02:58PM 42.7028 -84.7075 195° South 481 554 21,300 1,020 Climbing Chicago Center
02:59PM 42.5811 -84.7831 205° Southwest 480 552 22,900 1,500 Climbing Chicago Center
03:00PM 42.4592 -84.8597 205° Southwest 482 555 24,500 1,500 Climbing Chicago Center
03:01PM 42.3350 -84.9372 205° Southwest 488 562 26,100 1,500 Climbing Chicago Center
03:02PM 42.2092 -85.0172 205° Southwest 499 574 27,600 1,440 Climbing Chicago Center
03:03PM 42.0825 -85.0950 205° Southwest 501 577 29,100 1,500 Climbing Chicago Center
03:04PM 41.9378 -85.1853 205° Southwest 506 582 30,800 1,560 Climbing Chicago Center
03:05PM 41.8103 -85.2639 205° Southwest 505 581 32,400 1,440 Climbing Chicago Center
03:06PM 41.6731 -85.3475 204° Southwest 506 582 33,800 1,020 Climbing Chicago Center
03:07PM 41.5425 -85.4261 204° Southwest 512 589 34,600 960 Climbing Chicago Center
03:08PM 41.4089 -85.5089 205° Southwest 518 596 35,900 1,200 Climbing Chicago Center
03:09PM 41.2803 -85.5875 205° Southwest 511 588 37,100 1,260 Climbing Chicago Center
03:11PM 41.1533 -85.6639 204° Southwest 504 580 38,600 1,380 Climbing Chicago Center
03:12PM 41.0083 -85.7511 204° Southwest 482 555 40,000 660 Climbing Chicago Center
03:13PM 40.8867 -85.8231 204° Southwest 478 550 40,000  Level Chicago Center
03:14PM 40.7633 -85.8958 204° Southwest 485 558 40,000  Level Chicago Center
03:15PM 40.6289 -85.9764 204° Southwest 486 559 40,000  Level Chicago Center
03:16PM 40.5081 -86.0483 204° Southwest 481 554 40,000 360 Level Chicago Center
03:17PM 40.3886 -86.1186 204° Southwest 474 545 40,800 480 Climbing Chicago Center
03:18PM 40.2708 -86.1886 204° Southwest 469 540 41,000 60 Climbing Chicago Center
03:19PM 40.1500 -86.2583 204° Southwest 472 543 41,000  Level Chicago Center
03:20PM 40.0042 -86.3436 204° Southwest 480 552 41,000  Level Chicago Center
03:21PM 39.8856 -86.4139 204° Southwest 477 549 41,000  Level Chicago Center
03:22PM 39.7678 -86.4825 204° Southwest 477 549 41,000  Level Chicago Center
03:23PM 39.6289 -86.5589 203° Southwest 463 533 41,000  Level Indianapolis Center
03:24PM 39.5131 -86.6253 204° Southwest 459 528 41,000  Level Indianapolis Center
03:25PM 39.3739 -86.7033 203° Southwest 457 526 41,000  Level Indianapolis Center
03:26PM 39.2600 -86.7681 204° Southwest 450 518 41,000  Level Indianapolis Center
03:27PM 39.1456 -86.8336 204° Southwest 452 520 41,000  Level Indianapolis Center
03:28PM 39.0203 -86.9033 203° Southwest 447 514 41,000  Level Indianapolis Center
03:29PM 38.9061 -86.9678 204° Southwest 447 514 41,000  Level Indianapolis Center
03:30PM 38.7931 -87.0319 204° Southwest 444 511 41,000  Level Indianapolis Center
03:31PM 38.6797 -87.0936 203° Southwest 443 510 41,000  Level Indianapolis Center
03:32PM 38.5681 -87.1564 204° Southwest 440 506 41,000  Level Indianapolis Center
03:33PM 38.4353 -87.2319 204° Southwest 440 506 41,000  Level Indianapolis Center
03:34PM 38.3236 -87.2933 203° Southwest 443 510 41,000  Level Indianapolis Center
03:35PM 38.2122 -87.3533 203° Southwest 440 506 41,000  Level Indianapolis Center
03:37PM 38.1003 -87.4144 203° Southwest 440 506 41,000  Level Indianapolis Center
03:38PM 37.9881 -87.4756 203° Southwest 439 505 41,000  Level Indianapolis Center
03:39PM 37.8739 -87.5378 203° Southwest 445 512 41,000  Level Indianapolis Center
03:40PM 37.7483 -87.6050 203° Southwest 453 521 41,000  Level Indianapolis Center
03:41PM 37.6103 -87.6792 203° Southwest 459 528 41,000  Level Indianapolis Center
03:42PM 37.4914 -87.7439 203° Southwest 462 532 41,000  Level Indianapolis Center
03:43PM 37.3703 -87.8081 203° Southwest 467 537 41,000  Level Indianapolis Center
03:44PM 37.2858 -87.8569 205° Southwest 459 528 41,000  Level Memphis Center
03:45PM 37.1517 -87.9261 202° Southwest 470 541 41,000  Level Memphis Center
03:46PM 37.0342 -87.9869 202° Southwest 470 541 41,000  Level Memphis Center
03:47PM 36.9186 -88.0500 204° Southwest 470 541 41,000  Level Memphis Center
03:48PM 36.7908 -88.1186 203° Southwest 463 533 41,000  Level Memphis Center
03:49PM 36.6792 -88.1758 202° Southwest 452 520 41,000  Level Memphis Center
03:50PM 36.5656 -88.2306 201° Southwest 447 514 41,000  Level Memphis Center
03:51PM 36.4519 -88.2903 203° Southwest 447 514 41,000  Level Memphis Center
03:52PM 36.3589 -88.3392 203° Southwest 447 514 41,000  Level Memphis Center
03:53PM 36.2328 -88.4042 203° Southwest 447 514 41,000  Level Memphis Center
03:54PM 36.1169 -88.4633 202° Southwest 447 514 41,000  Level Memphis Center
03:55PM 36.0031 -88.5225 203° Southwest 447 514 41,000  Level Memphis Center
03:56PM 35.8853 -88.5814 202° Southwest 452 520 41,000  Level Memphis Center
03:57PM 35.7733 -88.6403 203° Southwest 452 520 41,000  Level Memphis Center
03:58PM 35.6553 -88.6964 201° Southwest 447 514 41,000  Level Memphis Center
03:59PM 35.5414 -88.7572 203° Southwest 447 514 41,000  Level Memphis Center
04:00PM 35.4233 -88.8181 203° Southwest 441 507 41,000  Level Memphis Center
04:01PM 35.3050 -88.8764 202° Southwest 436 502 41,000  Level Memphis Center
04:02PM 35.1953 -88.9342 203° Southwest 436 502 41,000  Level Memphis Center
04:03PM 35.0811 -88.9894 202° Southwest 436 502 41,000  Level Memphis Center
04:04PM 34.9692 -89.0444 202° Southwest 436 502 41,000  Level Memphis Center
04:05PM 34.8569 -89.0994 202° Southwest 436 502 41,000  Level Memphis Center
04:06PM 34.7553 -89.1489 202° Southwest 436 502 41,000  Level Memphis Center
04:07PM 34.6431 -89.2061 203° Southwest 436 502 41,000  Level Memphis Center
04:08PM 34.5308 -89.2631 203° Southwest 431 496 41,000  Level Memphis Center
04:09PM 34.4189 -89.3197 203° Southwest 431 496 41,000  Level Memphis Center
04:10PM 34.2961 -89.3817 203° Southwest 431 496 41,000  Level Memphis Center
04:11PM 34.1817 -89.4358 201° Southwest 431 496 41,000  Level Memphis Center
04:12PM 34.0717 -89.4919 203° Southwest 431 496 41,000  Level Memphis Center
04:13PM 33.9592 -89.5433 201° Southwest 436 502 41,000  Level Memphis Center
04:14PM 33.8511 -89.5992 203° Southwest 428 493 41,000  Level Memphis Center
04:15PM 33.7553 -89.6500 204° Southwest 428 493 41,000  Level Memphis Center
04:16PM 33.6431 -89.7033 202° Southwest 434 499 41,000  Level Memphis Center
04:17PM 33.5325 -89.7567 202° Southwest 434 499 41,000  Level Memphis Center
04:18PM 33.4200 -89.8122 202° Southwest 434 499 41,000  Level Memphis Center
04:19PM 33.3097 -89.8650 202° Southwest 434 499 41,000  Level Memphis Center
04:20PM 33.1867 -89.9228 201° Southwest 434 499 41,000  Level Memphis Center
04:21PM 33.0783 -89.9806 204° Southwest 434 499 41,000  Level Memphis Center
04:22PM 32.9617 -90.0378 202° Southwest 434 499 41,000 -180 Level Memphis Center
04:23PM 32.8492 -90.0828 199° South 434 499 40,700 -420 Descending Memphis Center
04:24PM 32.7428 -90.1350 202° Southwest 428 493 40,200 -600 Descending Memphis Center
04:25PM 32.6447 -90.1797 201° Southwest 423 487 39,600 -780 Descending Memphis Center
04:26PM 32.5383 -90.2267 200° South 418 481 38,700 -1,020 Descending Memphis Center
04:27PM 32.4319 -90.2761 201° Southwest 412 474 37,600 -1,140 Descending Memphis Center
04:28PM 32.3192 -90.3303 202° Southwest 423 487 36,500 -1,140 Descending Memphis Center
04:29PM 32.2042 -90.3672 195° South 428 493 35,400 -1,140 Descending Memphis Center
04:30PM 32.0792 -90.3917 189° South 440 506 34,300 -1,140 Descending Memphis Center
04:30PM 32.0200 -90.4044 190° South 454 522 33,700 -1,200 Descending Houston Center
04:31PM 31.8778 -90.4550 197° South 451 519 32,400 -1,500 Descending Houston Center
04:32PM 31.7681 -90.5122 204° Southwest 439 505 30,600 -2,220 Descending Houston Center
04:33PM 31.6597 -90.5700 204° Southwest 432 497 27,900 -2,640 Descending Houston Center
04:34PM 31.5531 -90.6267 204° Southwest 424 488 25,200 -2,520 Descending Houston Center
04:35PM 31.4514 -90.6800 204° Southwest 408 470 22,700 -2,460 Descending Houston Center
04:36PM 31.3561 -90.7303 204° Southwest 384 442 20,200 -2,460 Descending Houston Center
04:37PM 31.2439 -90.7892 204° Southwest 372 428 17,600 -2,400 Descending Houston Center
04:38PM 31.1542 -90.8372 205° Southwest 361 415 15,200 -2,280 Descending Houston Center
04:40PM 31.0661 -90.8825 204° Southwest 350 403 13,000 -2,040 Descending Houston Center
04:41PM 30.9850 -90.9247 204° Southwest 329 379 11,000 -1,980 Descending Houston Center
04:42PM 30.9078 -90.9650 204° Southwest 314 361 9,000 -2,040 Descending Houston Center
04:43PM 30.8197 -91.0100 204° Southwest 297 342 6,800 -1,980 Descending Houston Center
04:44PM 30.7486 -91.0481 205° Southwest 289 333 5,000 -1,620 Descending Houston Center
04:45PM 30.6786 -91.0792 201° Southwest 280 322 3,500 -1,080 Descending Houston Center
04:46PM 30.6169 -91.0850 185° South 267 307 2,800 -720 Descending Houston Center
04:48PM 30.5329 -91.1499 199° South  Level Estimated
04:55PM 30.5329 -91.1499 199° South  Level Estimated
04:56PM 30.5329 -91.1499 199° South  Level Estimated
04:57PM 30.5329 -91.1499 199° South  Level Estimated
04:58PM 30.5329 -91.1499 199° South  Level Estimated